Nearby METAR Reports

This page may be slow to load as it queries the National Weather Service for data.

KBIS - Bismarck, North Dakota, USA
Distance from station: S 10mi, 15km
Updated: Mon, 02-Aug-2021 12:52am CDT
Clear
Clear
 Wind from E
Wind: E 6 mph , 9 km/h
Temperature: 64°F , 18°C
Dew Point: 52°F , 11°C
Humidity: 64%
Barometer: 30.18 inHg , 1022 hPa
Clouds: Clear
Visibility: 9 miles , 14 km
2021/08/02 05:52 KBIS 020552Z AUTO 09005KT 9SM CLR 18/11 A3018 RMK AO2 SLP214 T01830106 10300 20183 403110117 53005 $
KDIK - Dickinson, North Dakota, USA
Distance from station: W 95mi, 154km
Updated: Sun, 01-Aug-2021 11:56pm CDT
Clear
Clear
 Wind from ESE
Wind: ESE 7 mph , 11 km/h
Temperature: 64°F , 18°C
Dew Point: 45°F , 7°C
Humidity: 49%
Barometer: 30.17 inHg , 1021.7 hPa
Clouds: Clear
Visibility: 8 miles , 13 km
2021/08/02 04:56 KDIK 020456Z AUTO 11006KT 8SM CLR 18/07 A3017 RMK AO2 SLP201 T01780067
 
KXWA - Williston, North Dakota, USA
Distance from station: NNW 2mi, 2km
Updated: Mon, 02-Aug-2021 12:51am CDT
Clear
Clear
 Wind from SSE
Wind: SSE 7 mph , 11 km/h
Temperature: 70°F , 21°C
Dew Point: 48°F , 9°C
Humidity: 46%
Barometer: 30.17 inHg , 1021.7 hPa
Clouds: Clear
Visibility: 10 miles , 16 km
2021/08/02 05:51 KXWA 020551Z AUTO 15006KT 10SM CLR 21/09 A3017 RMK AO2 SLP209 T02060089 10317 20206 403280167 51002
KFAR - Fargo, North Dakota, USA
Distance from station: NNW 4mi, 7km
Updated: Sun, 01-Aug-2021 11:53pm CDT
Smoke, Clear
Smoke, Clear
 Wind from SSW
Wind: SSW 3 mph , 6 km/h
Temperature: 55°F , 13°C
Dew Point: 48°F , 9°C
Humidity: 77%
Barometer: 30.16 inHg , 1021.3 hPa
Summary: Smoke
Clouds: Clear
Visibility: 7 miles , 11 km
2021/08/02 04:53 KFAR 020453Z 20003KT 7SM FU CLR 13/09 A3016 RMK AO2 SLP214 T01330094
 
KGFK - Grand Forks, North Dakota, USA
Distance from station: NNW 76mi, 123km
Updated: Sun, 01-Aug-2021 11:53pm CDT
Haze, Overcast
Haze, Overcast
 Wind from SW
Wind: SW 8 mph , 13 km/h
Temperature: 57°F , 14°C
Dew Point: 48°F , 9°C
Humidity: 72%
Barometer: 30.14 inHg , 1020.7 hPa
Summary: Haze
Clouds: Overcast
Visibility: 6 miles , 10 km
Cloud details: Overcast 3500 ft
2021/08/02 04:53 KGFK 020453Z AUTO 22007KT 6SM HZ OVC035 14/09 A3014 RMK AO2 SLP207 T01390094
KMOT - Minot, North Dakota, USA
Distance from station: E 109mi, 175km
Updated: Sun, 01-Aug-2021 11:54pm CDT
Clear
Clear
 Wind from SSE
Wind: SSE 5 mph , 7 km/h
Temperature: 68°F , 20°C
Dew Point: 52°F , 11°C
Humidity: 56%
Barometer: 30.15 inHg , 1021 hPa
Clouds: Clear
Visibility: 8 miles , 13 km
2021/08/02 04:54 KMOT 020454Z AUTO 15004KT 8SM CLR 20/11 A3015 RMK AO2 SLP204 T02000106